Time;durP1;ratioP1;P1;durP2;ratioP2;P2;SDS_P1;SDS_P2;PMS_P1;PMS_P2;Temp;Humidity;BMP_temperature;BMP_pressure;BME280_temperature;BME280_humidity;BME280_pressure;Samples;Min_cycle;Max_cycle;Signal;HPM_P1;HPM_P2
2021/01/24 00:01:15;;;;;;;22.17;12.65;;;0.20;99.90;;;;;;5021795;28;20431;-81
2021/01/24 00:03:41;;;;;;;18.48;11.73;;;0.20;99.90;;;;;;5019808;28;20081;-82
2021/01/24 00:06:07;;;;;;;16.38;11.73;;;0.20;99.90;;;;;;5020265;28;20046;-81
2021/01/24 00:08:34;;;;;;;15.00;10.48;;;0.30;99.90;;;;;;5020125;28;20073;-81
2021/01/24 00:11:00;;;;;;;14.20;10.15;;;0.30;99.90;;;;;;5019316;28;20085;-81
2021/01/24 00:13:26;;;;;;;14.95;10.80;;;0.40;99.90;;;;;;5020496;28;20534;-81
2021/01/24 00:15:52;;;;;;;12.35;9.63;;;0.50;99.90;;;;;;5019966;28;20517;-81
2021/01/24 00:18:19;;;;;;;12.82;9.40;;;0.50;99.90;;;;;;5018200;28;20140;-81
2021/01/24 00:20:45;;;;;;;16.92;10.63;;;0.50;99.90;;;;;;5018972;28;20137;-80
2021/01/24 00:23:11;;;;;;;17.35;10.88;;;0.50;99.90;;;;;;5017699;28;20123;-81
2021/01/24 00:25:37;;;;;;;19.48;10.55;;;0.50;99.90;;;;;;5016944;28;20129;-81
2021/01/24 00:28:04;;;;;;;16.73;11.40;;;0.40;99.90;;;;;;5016075;28;20047;-81
2021/01/24 00:30:30;;;;;;;18.05;12.13;;;0.40;99.90;;;;;;5016503;28;20116;-81
2021/01/24 00:32:56;;;;;;;17.00;11.75;;;0.30;99.90;;;;;;5017574;28;20057;-81
2021/01/24 00:35:23;;;;;;;16.58;11.60;;;0.20;99.90;;;;;;5015948;28;20473;-81
2021/01/24 00:37:49;;;;;;;19.17;11.38;;;0.20;99.90;;;;;;5018243;28;20510;-81
2021/01/24 00:40:15;;;;;;;17.80;10.85;;;0.30;99.90;;;;;;5017377;28;20133;-81
2021/01/24 00:42:42;;;;;;;20.20;12.35;;;0.40;99.90;;;;;;5015507;28;20128;-82
2021/01/24 00:45:09;;;;;;;19.05;11.30;;;0.30;99.90;;;;;;5016842;28;20046;-81
2021/01/24 00:47:35;;;;;;;16.27;11.52;;;0.30;99.90;;;;;;5015621;28;20097;-81
2021/01/24 00:50:04;;;;;;;15.95;10.73;;;0.30;99.90;;;;;;5014159;28;20065;-81
2021/01/24 00:52:30;;;;;;;17.85;12.00;;;0.40;99.90;;;;;;5014603;28;20050;-81
2021/01/24 00:54:56;;;;;;;18.35;12.18;;;0.30;99.90;;;;;;5013497;28;20054;-81
2021/01/24 00:57:23;;;;;;;16.58;11.43;;;0.20;99.90;;;;;;5013494;28;20479;-80
2021/01/24 00:59:49;;;;;;;17.25;12.38;;;0.20;99.90;;;;;;5013250;28;20470;-80
2021/01/24 01:02:15;;;;;;;18.30;11.98;;;0.20;99.90;;;;;;5015559;28;20046;-81
2021/01/24 01:04:43;;;;;;;16.88;11.77;;;0.40;99.90;;;;;;5013626;28;20050;-82
2021/01/24 01:07:09;;;;;;;18.17;11.48;;;0.40;99.90;;;;;;5012742;28;20096;-82
2021/01/24 01:09:36;;;;;;;18.10;12.52;;;0.50;99.90;;;;;;5014028;28;20068;-79
2021/01/24 01:12:04;;;;;;;17.27;12.20;;;0.50;99.90;;;;;;5013157;28;20080;-79
2021/01/24 01:14:31;;;;;;;17.13;11.82;;;0.50;99.90;;;;;;5012402;28;20050;-81
2021/01/24 01:16:57;;;;;;;17.88;12.35;;;0.50;99.90;;;;;;5012665;28;20574;-79
2021/01/24 01:19:24;;;;;;;16.33;11.27;;;0.50;99.90;;;;;;5012947;28;20483;-78
2021/01/24 01:21:50;;;;;;;15.15;11.38;;;0.40;99.90;;;;;;5014199;28;20092;-81
2021/01/24 01:24:16;;;;;;;14.85;11.18;;;0.40;99.90;;;;;;5013350;28;20100;-81
2021/01/24 01:26:42;;;;;;;15.93;11.38;;;0.40;99.90;;;;;;5012818;28;20558;-79
2021/01/24 01:29:09;;;;;;;14.25;10.70;;;0.50;99.90;;;;;;5013703;28;20108;-79
2021/01/24 01:31:35;;;;;;;17.85;11.82;;;0.40;99.90;;;;;;5013098;28;20046;-79
2021/01/24 01:34:01;;;;;;;17.13;11.68;;;0.30;99.90;;;;;;5014437;28;20521;-79
2021/01/24 01:36:27;;;;;;;17.27;12.40;;;0.30;99.90;;;;;;5016607;28;20125;-82
2021/01/24 01:38:54;;;;;;;21.67;13.10;;;0.20;99.90;;;;;;5016950;28;20096;-79
2021/01/24 01:41:20;;;;;;;18.20;12.20;;;0.20;99.90;;;;;;5017536;28;20136;-79
2021/01/24 01:43:46;;;;;;;18.48;11.20;;;0.20;99.90;;;;;;5017275;28;20088;-79
2021/01/24 01:46:19;;;;;;;17.27;11.88;;;0.20;99.90;;;;;;5019304;28;20070;-82
2021/01/24 01:48:45;;;;;;;19.35;13.23;;;0.10;99.90;;;;;;5024464;28;20077;-80
2021/01/24 01:51:11;;;;;;;21.08;12.90;;;0.10;99.90;;;;;;5023478;28;20078;-80
2021/01/24 01:53:38;;;;;;;21.13;13.52;;;0.20;99.90;;;;;;5023462;28;20081;-82
2021/01/24 01:56:04;;;;;;;21.52;12.95;;;0.30;99.90;;;;;;5018802;28;20053;-83
2021/01/24 01:58:30;;;;;;;16.35;11.48;;;0.30;99.90;;;;;;5023987;28;20470;-82
2021/01/24 02:00:58;;;;;;;21.42;12.57;;;0.30;99.90;;;;;;5022837;28;20050;-83
2021/01/24 02:03:54;;;;;;;18.25;11.95;;;0.20;99.90;;;;;;5023416;28;20080;-82
2021/01/24 02:06:51;;;;;;;19.95;11.82;;;0.30;99.90;;;;;;5026719;28;20069;-83
2021/01/24 02:09:30;;;;;;;22.15;12.68;;;0.30;99.90;;;;;;5024166;28;20046;-80
2021/01/24 02:12:12;;;;;;;16.95;12.45;;;0.20;99.90;;;;;;5023376;28;20576;-80
2021/01/24 02:14:42;;;;;;;21.48;12.73;;;0.30;99.90;;;;;;5030354;28;20399;-79
2021/01/24 02:17:11;;;;;;;20.42;13.07;;;0.30;99.90;;;;;;5018852;28;20053;-79
2021/01/24 02:20:12;;;;;;;25.58;13.90;;;0.30;99.90;;;;;;5018445;28;20057;-79
2021/01/24 02:22:40;;;;;;;16.85;11.82;;;0.20;99.90;;;;;;5018035;28;20088;-82
2021/01/24 02:25:17;;;;;;;19.02;13.13;;;0.20;99.90;;;;;;5019901;28;20507;-79
2021/01/24 02:27:59;;;;;;;20.52;13.43;;;0.30;99.90;;;;;;5017845;28;20120;-80
2021/01/24 02:30:35;;;;;;;24.27;14.10;;;0.30;99.90;;;;;;5017801;28;20081;-81
2021/01/24 02:33:05;;;;;;;23.77;13.80;;;0.20;99.90;;;;;;5017579;28;20133;-81
2021/01/24 02:35:37;;;;;;;26.35;15.10;;;0.30;99.90;;;;;;5017542;28;20050;-81
2021/01/24 02:38:06;;;;;;;21.60;13.60;;;0.20;99.90;;;;;;5016955;28;20085;-81
2021/01/24 02:40:36;;;;;;;25.70;14.75;;;0.30;99.90;;;;;;5016722;28;20105;-81
2021/01/24 02:43:06;;;;;;;23.23;14.15;;;0.30;99.90;;;;;;5017685;28;20042;-81
2021/01/24 02:45:34;;;;;;;23.98;13.98;;;0.30;99.90;;;;;;5017048;28;20077;-81
2021/01/24 02:48:01;;;;;;;25.63;14.95;;;0.40;99.90;;;;;;5016038;28;20077;-82
2021/01/24 02:50:30;;;;;;;25.30;14.95;;;0.30;99.90;;;;;;5017983;28;20060;-82
2021/01/24 02:53:00;;;;;;;25.50;15.18;;;0.30;99.90;;;;;;5016372;28;20066;-79
2021/01/24 02:55:28;;;;;;;23.20;14.85;;;0.30;99.90;;;;;;5017782;28;20054;-79
2021/01/24 02:57:55;;;;;;;23.63;14.43;;;0.40;99.90;;;;;;5017772;28;20119;-81
2021/01/24 03:00:22;;;;;;;26.23;15.07;;;0.30;99.90;;;;;;5016300;28;20064;-79
2021/01/24 03:02:50;;;;;;;22.50;13.57;;;0.40;99.90;;;;;;5015581;28;20149;-81
2021/01/24 03:05:16;;;;;;;22.35;13.63;;;0.30;99.90;;;;;;5015814;28;20049;-82
2021/01/24 03:07:44;;;;;;;21.52;13.38;;;0.50;99.90;;;;;;5017125;28;20045;-81
2021/01/24 03:10:11;;;;;;;19.27;13.43;;;0.60;99.90;;;;;;5016669;28;20050;-81
2021/01/24 03:12:49;;;;;;;17.45;12.27;;;0.70;99.90;;;;;;5016547;28;20089;-81
2021/01/24 03:15:17;;;;;;;20.10;13.43;;;0.80;99.90;;;;;;5016486;28;20490;-81
2021/01/24 03:17:46;;;;;;;19.27;12.50;;;0.70;99.90;;;;;;5015558;28;20499;-81
2021/01/24 03:20:15;;;;;;;22.17;13.15;;;0.80;99.90;;;;;;5016463;28;20053;-79
2021/01/24 03:22:47;;;;;;;17.67;11.90;;;0.80;99.90;;;;;;5015483;28;20053;-79
2021/01/24 03:25:14;;;;;;;23.50;12.95;;;0.80;99.90;;;;;;5015675;28;20564;-79
2021/01/24 03:27:44;;;;;;;18.98;12.38;;;0.80;99.90;;;;;;5014885;28;20502;-81
2021/01/24 03:30:11;;;;;;;20.90;13.15;;;0.70;99.90;;;;;;5014940;28;20518;-81
2021/01/24 03:32:38;;;;;;;17.98;12.35;;;0.80;99.90;;;;;;5014982;28;20054;-81
2021/01/24 03:35:06;;;;;;;21.38;12.65;;;0.90;99.90;;;;;;5022965;28;20120;-82
2021/01/24 03:37:33;;;;;;;20.30;12.63;;;0.80;99.90;;;;;;5024479;28;20054;-80
2021/01/24 03:39:59;;;;;;;21.27;12.88;;;0.70;99.90;;;;;;5022152;28;20080;-82
2021/01/24 03:42:28;;;;;;;23.27;12.75;;;0.70;99.90;;;;;;5022161;28;20050;-82
2021/01/24 03:44:54;;;;;;;17.67;12.18;;;0.80;99.90;;;;;;5022594;28;20050;-81
2021/01/24 03:47:21;;;;;;;17.27;11.30;;;0.80;99.90;;;;;;5021673;28;20169;-81
2021/01/24 03:49:47;;;;;;;17.60;11.55;;;0.90;99.90;;;;;;5020715;28;20058;-81
2021/01/24 03:52:14;;;;;;;20.67;12.82;;;1.00;99.90;;;;;;5018545;28;20069;-81
2021/01/24 03:54:40;;;;;;;18.85;12.27;;;0.90;99.90;;;;;;5018118;28;20045;-81
2021/01/24 03:57:09;;;;;;;16.10;12.02;;;0.90;99.90;;;;;;5020361;28;20046;-82
2021/01/24 03:59:35;;;;;;;15.52;10.90;;;0.90;99.90;;;;;;5017617;28;20077;-82
2021/01/24 04:02:02;;;;;;;17.20;11.65;;;0.90;99.90;;;;;;5022222;28;20042;-81
2021/01/24 04:04:30;;;;;;;19.85;13.00;;;1.00;99.90;;;;;;5018154;28;20111;-81
2021/01/24 04:06:56;;;;;;;16.50;11.48;;;1.00;99.90;;;;;;5016982;28;20046;-81
2021/01/24 04:09:22;;;;;;;20.38;12.60;;;1.00;99.90;;;;;;5017125;28;20141;-81
2021/01/24 04:11:48;;;;;;;18.67;13.43;;;0.90;99.90;;;;;;5018970;28;20491;-81
2021/01/24 04:14:15;;;;;;;18.13;13.25;;;0.90;99.90;;;;;;5017770;28;20081;-81
2021/01/24 04:16:41;;;;;;;17.30;12.55;;;0.90;99.90;;;;;;5017637;28;20052;-81
2021/01/24 04:19:07;;;;;;;17.45;11.95;;;0.90;99.90;;;;;;5015630;28;20052;-81
2021/01/24 04:21:34;;;;;;;16.77;12.38;;;0.80;99.90;;;;;;5016303;28;20418;-81
2021/01/24 04:24:00;;;;;;;17.65;12.27;;;0.80;99.90;;;;;;5015641;28;20418;-81
2021/01/24 04:26:26;;;;;;;17.75;12.30;;;0.80;99.90;;;;;;5014880;28;20550;-81
2021/01/24 04:28:52;;;;;;;18.23;12.02;;;0.80;99.90;;;;;;5016001;28;20042;-81
2021/01/24 04:31:18;;;;;;;20.08;12.13;;;0.70;99.90;;;;;;5014964;28;20089;-81
2021/01/24 04:33:45;;;;;;;21.13;12.55;;;0.80;99.90;;;;;;5014910;28;20077;-82
2021/01/24 04:36:11;;;;;;;16.38;11.50;;;0.70;99.90;;;;;;5014723;28;20049;-79
2021/01/24 04:38:37;;;;;;;19.83;11.63;;;0.70;99.90;;;;;;5015540;28;20057;-81
2021/01/24 04:41:05;;;;;;;17.63;11.50;;;0.50;99.90;;;;;;5014706;28;20052;-81
2021/01/24 04:43:32;;;;;;;20.38;11.88;;;0.50;99.90;;;;;;5014703;28;20088;-81
2021/01/24 04:45:59;;;;;;;17.42;11.85;;;0.50;99.90;;;;;;5015693;28;20077;-81
2021/01/24 04:48:26;;;;;;;18.98;11.38;;;0.50;99.90;;;;;;5014468;28;20129;-81
2021/01/24 04:50:53;;;;;;;18.75;11.55;;;0.50;99.90;;;;;;5016446;28;20050;-81
2021/01/24 04:53:20;;;;;;;20.25;12.02;;;0.30;99.90;;;;;;5014671;28;20124;-81
2021/01/24 04:55:47;;;;;;;20.25;11.57;;;0.40;99.90;;;;;;5013595;28;20053;-81
2021/01/24 04:58:14;;;;;;;24.25;13.88;;;0.40;99.90;;;;;;5015417;28;20053;-81
2021/01/24 05:00:41;;;;;;;23.42;12.25;;;0.30;99.90;;;;;;5014394;28;20057;-81
2021/01/24 05:03:07;;;;;;;23.63;13.07;;;0.40;99.90;;;;;;5015035;28;20054;-81
2021/01/24 05:05:33;;;;;;;23.77;13.35;;;0.40;99.90;;;;;;5014176;28;20049;-81
2021/01/24 05:08:01;;;;;;;23.88;14.05;;;0.30;99.90;;;;;;5014725;28;20042;-81
2021/01/24 05:10:29;;;;;;;26.38;13.10;;;0.30;99.90;;;;;;5014465;28;20058;-81
2021/01/24 05:12:57;;;;;;;23.08;14.20;;;0.40;99.90;;;;;;5013093;28;20465;-81
2021/01/24 05:15:25;;;;;;;27.27;14.30;;;0.50;99.90;;;;;;5012495;28;20107;-81
2021/01/24 05:17:55;;;;;;;22.10;12.27;;;0.50;99.90;;;;;;5013495;28;20108;-81
2021/01/24 05:20:23;;;;;;;23.85;13.38;;;0.50;99.90;;;;;;5012648;28;20438;-81
2021/01/24 05:22:51;;;;;;;25.73;13.70;;;0.60;99.90;;;;;;5021857;28;20416;-82
2021/01/24 05:25:19;;;;;;;24.88;14.07;;;0.60;99.90;;;;;;5022071;28;20396;-82
2021/01/24 05:27:47;;;;;;;34.90;15.13;;;0.50;99.90;;;;;;5021096;28;20077;-82
2021/01/24 05:30:19;;;;;;;31.67;15.50;;;0.60;99.90;;;;;;5019509;28;20077;-81
2021/01/24 05:32:45;;;;;;;34.70;16.27;;;0.70;99.90;;;;;;5018448;28;20073;-81
2021/01/24 05:35:13;;;;;;;28.23;14.85;;;0.60;99.90;;;;;;5019099;28;20050;-82
2021/01/24 05:37:40;;;;;;;26.83;14.52;;;0.60;99.90;;;;;;5018268;28;20474;-81
2021/01/24 05:40:08;;;;;;;26.98;13.25;;;0.60;99.90;;;;;;5018081;28;20110;-81
2021/01/24 05:42:36;;;;;;;25.02;13.40;;;0.60;99.90;;;;;;5013847;28;20114;-82
2021/01/24 05:45:11;;;;;;;22.02;12.60;;;0.60;99.90;;;;;;5017163;28;20081;-81
2021/01/24 05:47:40;;;;;;;19.25;11.40;;;0.60;99.90;;;;;;5015193;28;20058;-81
2021/01/24 05:50:19;;;;;;;19.95;12.07;;;0.60;99.90;;;;;;5015292;28;20053;-81
2021/01/24 05:52:47;;;;;;;21.27;12.30;;;0.60;99.90;;;;;;5016030;28;20049;-81
2021/01/24 05:55:31;;;;;;;16.95;11.27;;;0.60;99.90;;;;;;5014575;28;20451;-81
2021/01/24 05:57:59;;;;;;;18.40;10.80;;;0.70;99.90;;;;;;5015322;28;20058;-81
2021/01/24 06:00:25;;;;;;;17.15;11.23;;;0.70;99.90;;;;;;5014674;28;20077;-81
2021/01/24 06:02:52;;;;;;;17.60;10.82;;;0.70;99.90;;;;;;5015653;28;20073;-81
2021/01/24 06:05:19;;;;;;;18.95;10.93;;;0.70;99.90;;;;;;5013928;28;20073;-82
2021/01/24 06:07:45;;;;;;;14.93;10.65;;;0.70;99.90;;;;;;5013681;28;20137;-81
2021/01/24 06:10:12;;;;;;;14.27;10.05;;;0.70;99.90;;;;;;5014707;28;20466;-81
2021/01/24 06:12:43;;;;;;;19.23;10.98;;;0.70;99.90;;;;;;5013988;28;20129;-81
2021/01/24 06:15:13;;;;;;;20.75;11.15;;;0.80;99.90;;;;;;5014301;28;20084;-81
2021/01/24 06:17:44;;;;;;;17.10;10.90;;;0.70;99.90;;;;;;5012797;28;20499;-81
2021/01/24 06:20:15;;;;;;;17.15;11.20;;;0.70;99.90;;;;;;5012635;28;20136;-81
2021/01/24 06:23:00;;;;;;;14.77;9.55;;;0.70;99.90;;;;;;5017734;28;20144;-81
2021/01/24 06:25:32;;;;;;;24.52;12.68;;;0.80;99.90;;;;;;5018558;28;20073;-81
2021/01/24 06:28:21;;;;;;;17.77;10.20;;;0.80;99.90;;;;;;5028900;28;20100;-81
2021/01/24 06:30:48;;;;;;;14.95;9.48;;;0.80;99.90;;;;;;5015922;28;20092;-81
2021/01/24 06:33:20;;;;;;;16.13;9.70;;;0.70;99.90;;;;;;5015929;28;20041;-81
2021/01/24 06:35:51;;;;;;;21.17;11.40;;;0.80;99.90;;;;;;5016119;28;20046;-81
2021/01/24 06:38:36;;;;;;;18.20;10.52;;;0.80;99.90;;;;;;5017991;28;20153;-81
2021/01/24 06:41:05;;;;;;;26.80;11.88;;;0.80;99.90;;;;;;5016497;28;20147;-81
2021/01/24 06:43:44;;;;;;;31.58;14.32;;;0.80;99.90;;;;;;5019510;28;20507;-82
2021/01/24 06:46:29;;;;;;;30.85;14.98;;;0.80;99.90;;;;;;5017739;28;20057;-82
2021/01/24 06:48:57;;;;;;;21.70;12.75;;;0.80;99.90;;;;;;5017511;28;20129;-81
2021/01/24 06:51:36;;;;;;;26.95;13.35;;;0.80;99.90;;;;;;5018181;28;20049;-81
2021/01/24 06:54:15;;;;;;;23.77;12.40;;;0.80;99.90;;;;;;5019347;28;20077;-81
2021/01/24 06:56:43;;;;;;;28.42;13.90;;;0.70;99.90;;;;;;5019714;28;20552;-82
2021/01/24 06:59:11;;;;;;;22.75;13.77;;;0.70;99.90;;;;;;5017657;28;20093;-81
2021/01/24 07:01:39;;;;;;;20.50;11.88;;;0.70;99.90;;;;;;5017974;28;20124;-81
2021/01/24 07:04:21;;;;;;;22.35;12.27;;;0.60;99.90;;;;;;5018235;28;20042;-81
2021/01/24 07:06:49;;;;;;;22.30;12.32;;;0.60;99.90;;;;;;5017425;28;20110;-81
2021/01/24 07:09:27;;;;;;;20.35;12.63;;;0.70;99.90;;;;;;5016842;28;20133;-82
2021/01/24 07:12:07;;;;;;;20.38;11.82;;;0.70;99.90;;;;;;5021781;28;20053;-82
2021/01/24 07:14:33;;;;;;;42.67;26.95;;;0.60;99.90;;;;;;5022638;28;20088;-82
2021/01/24 07:17:07;;;;;;;20.30;12.90;;;0.70;99.90;;;;;;5023600;28;20053;-82
2021/01/24 07:19:47;;;;;;;49.28;25.88;;;0.70;99.90;;;;;;5024607;28;20137;-82
2021/01/24 07:22:15;;;;;;;166.02;66.10;;;0.70;99.90;;;;;;5021459;28;20057;-82
2021/01/24 07:24:43;;;;;;;20.67;11.90;;;0.70;99.90;;;;;;5023711;28;20081;-81
2021/01/24 07:27:12;;;;;;;98.93;49.60;;;0.70;99.90;;;;;;5022918;28;20470;-82
2021/01/24 07:29:38;;;;;;;89.35;46.15;;;0.80;99.90;;;;;;5031618;28;20045;-82
2021/01/24 07:32:09;;;;;;;50.25;25.85;;;0.80;99.90;;;;;;5039306;28;20092;-81
2021/01/24 07:34:36;;;;;;;21.98;12.98;;;0.80;99.90;;;;;;5038260;28;20081;-82
2021/01/24 07:37:05;;;;;;;49.35;25.98;;;0.80;99.90;;;;;;5039375;28;20564;-82
2021/01/24 07:39:32;;;;;;;224.52;100.28;;;0.80;99.90;;;;;;5038887;28;20124;-82
2021/01/24 07:42:00;;;;;;;132.80;64.60;;;0.80;99.90;;;;;;5039812;28;20053;-81
2021/01/24 07:44:26;;;;;;;45.42;19.50;;;0.80;99.90;;;;;;5040020;28;20045;-82
2021/01/24 07:46:53;;;;;;;44.72;20.63;;;0.90;99.90;;;;;;5038992;28;20055;-81
2021/01/24 07:49:19;;;;;;;44.88;23.17;;;0.90;99.90;;;;;;5037243;28;20056;-82
2021/01/24 07:51:47;;;;;;;4.65;3.95;;;0.90;99.90;;;;;;5038937;28;20072;-82
2021/01/24 07:54:16;;;;;;;3.05;2.85;;;1.00;99.90;;;;;;5042009;28;20502;-81
2021/01/24 07:56:44;;;;;;;2.42;2.30;;;1.00;99.90;;;;;;5037233;28;20092;-82
2021/01/24 07:59:11;;;;;;;1.60;1.50;;;1.10;99.90;;;;;;5039224;28;20112;-81
2021/01/24 08:01:38;;;;;;;0.85;0.85;;;1.20;99.90;;;;;;5039330;28;20528;-81
2021/01/24 08:04:04;;;;;;;0.85;0.85;;;1.30;99.90;;;;;;5040071;28;20068;-82
2021/01/24 08:06:32;;;;;;;1.67;1.58;;;1.40;99.90;;;;;;5038516;28;20065;-82
2021/01/24 08:09:00;;;;;;;1.33;1.23;;;1.40;99.90;;;;;;5039487;28;20052;-81
2021/01/24 08:11:28;;;;;;;1.30;1.30;;;1.50;99.90;;;;;;5040955;28;20053;-81
2021/01/24 08:13:55;;;;;;;0.80;0.80;;;1.50;99.90;;;;;;5037766;28;20517;-82
2021/01/24 08:16:28;;;;;;;0.68;0.68;;;1.50;99.90;;;;;;5036511;28;20500;-82
2021/01/24 08:18:56;;;;;;;0.30;0.30;;;1.60;99.90;;;;;;5041999;28;20049;-82
2021/01/24 08:21:23;;;;;;;0.50;0.50;;;1.70;99.90;;;;;;5043754;28;20049;-82
2021/01/24 08:23:50;;;;;;;0.25;0.25;;;1.70;99.90;;;;;;5043028;28;20076;-82
2021/01/24 08:26:18;;;;;;;0.20;0.20;;;1.80;99.90;;;;;;5043002;28;20065;-81
2021/01/24 08:28:46;;;;;;;0.50;0.50;;;1.80;99.90;;;;;;5043992;28;20505;-82
2021/01/24 08:31:21;;;;;;;0.40;0.40;;;1.90;99.90;;;;;;5043785;28;20049;-82
2021/01/24 08:33:48;;;;;;;0.30;0.30;;;2.00;99.90;;;;;;5043629;28;20471;-82
2021/01/24 08:36:20;;;;;;;0.20;0.20;;;2.00;99.90;;;;;;5043244;28;20119;-82
2021/01/24 08:38:48;;;;;;;0.20;0.20;;;2.10;99.90;;;;;;5043322;28;20077;-82
2021/01/24 08:41:16;;;;;;;0.17;0.15;;;2.10;99.90;;;;;;5044440;28;20046;-82
2021/01/24 08:43:43;;;;;;;0.40;0.40;;;2.10;99.90;;;;;;5042369;28;20056;-82
2021/01/24 08:46:19;;;;;;;0.28;0.20;;;2.20;99.90;;;;;;5041361;28;20076;-83
2021/01/24 08:49:08;;;;;;;0.10;0.10;;;2.20;99.90;;;;;;5044009;28;20049;-81
2021/01/24 08:51:51;;;;;;;0.05;0.05;;;2.20;99.90;;;;;;5042531;28;20053;-81
2021/01/24 08:54:19;;;;;;;0.30;0.30;;;2.30;99.90;;;;;;5043366;28;20061;-81
2021/01/24 08:56:46;;;;;;;1.17;0.40;;;2.40;99.90;;;;;;5041685;28;20449;-82
2021/01/24 08:59:26;;;;;;;0.20;0.20;;;2.50;99.90;;;;;;5043172;28;20045;-82
2021/01/24 09:01:55;;;;;;;1.50;1.33;;;2.60;99.90;;;;;;5044675;28;20072;-83
2021/01/24 09:04:33;;;;;;;0.60;0.60;;;2.70;99.90;;;;;;5050181;28;20045;-83
2021/01/24 09:07:19;;;;;;;0.47;0.30;;;2.80;99.90;;;;;;5048721;28;20711;-83
2021/01/24 09:09:47;;;;;;;0.40;0.40;;;2.80;99.90;;;;;;5047130;28;20113;-83
2021/01/24 09:12:16;;;;;;;1.20;0.65;;;2.80;99.90;;;;;;5046582;28;20077;-82
2021/01/24 09:14:42;;;;;;;0.95;0.68;;;2.80;99.90;;;;;;5045725;28;20076;-82
2021/01/24 09:17:11;;;;;;;0.75;0.50;;;2.80;99.90;;;;;;5041650;28;20074;-82
2021/01/24 09:19:40;;;;;;;0.45;0.45;;;2.80;99.90;;;;;;5033759;28;20091;-82
2021/01/24 09:22:15;;;;;;;1.65;0.40;;;3.00;99.90;;;;;;5029637;28;20049;-82
2021/01/24 09:24:42;;;;;;;0.28;0.28;;;3.00;99.90;;;;;;5022890;28;20110;-82
2021/01/24 09:27:11;;;;;;;0.25;0.25;;;3.10;99.90;;;;;;5021765;28;20073;-83
2021/01/24 09:29:40;;;;;;;0.20;0.20;;;3.10;99.90;;;;;;5020953;28;20081;-82
2021/01/24 09:32:07;;;;;;;0.10;0.10;;;3.10;99.90;;;;;;5021022;28;20073;-82
2021/01/24 09:34:34;;;;;;;0.13;0.13;;;3.00;99.90;;;;;;5020751;28;20108;-82
2021/01/24 09:37:02;;;;;;;0.22;0.22;;;3.00;99.90;;;;;;5021520;28;20442;-82
2021/01/24 09:39:28;;;;;;;0.73;0.60;;;3.00;99.90;;;;;;5022234;28;20053;-84
2021/01/24 09:41:55;;;;;;;0.20;0.20;;;2.90;99.90;;;;;;5021007;28;20069;-82
2021/01/24 09:44:21;;;;;;;0.15;0.15;;;2.90;99.90;;;;;;5017884;28;20081;-82
2021/01/24 09:46:48;;;;;;;0.30;0.30;;;2.90;99.90;;;;;;5019003;28;20391;-82
2021/01/24 09:49:15;;;;;;;0.17;0.17;;;2.90;99.90;;;;;;5019448;28;20046;-83
2021/01/24 09:51:41;;;;;;;1.33;0.40;;;2.90;99.90;;;;;;5018282;28;20467;-82
2021/01/24 09:54:07;;;;;;;0.32;0.32;;;2.90;99.90;;;;;;5020148;28;20061;-82
2021/01/24 09:56:33;;;;;;;0.20;0.20;;;2.80;99.90;;;;;;5018424;28;20085;-82
2021/01/24 09:59:00;;;;;;;0.93;0.93;;;2.80;99.90;;;;;;5023830;28;20050;-83
2021/01/24 10:01:26;;;;;;;0.50;0.50;;;2.80;99.90;;;;;;5023040;28;20073;-82
2021/01/24 10:03:53;;;;;;;0.22;0.22;;;2.80;99.90;;;;;;5020243;28;20076;-83
2021/01/24 10:06:21;;;;;;;0.60;0.60;;;2.80;99.90;;;;;;5020588;28;20512;-82
2021/01/24 10:08:48;;;;;;;0.30;0.30;;;2.70;99.90;;;;;;5020995;28;20493;-82
2021/01/24 10:11:14;;;;;;;0.35;0.35;;;2.70;99.90;;;;;;5021769;28;20077;-82
2021/01/24 10:13:41;;;;;;;0.80;0.30;;;2.70;99.90;;;;;;5023193;28;20053;-82
2021/01/24 10:16:08;;;;;;;0.40;0.40;;;2.80;99.90;;;;;;5021758;28;20046;-83
2021/01/24 10:18:35;;;;;;;0.10;0.10;;;2.80;99.90;;;;;;5021196;28;20053;-83
2021/01/24 10:21:01;;;;;;;0.60;0.30;;;2.80;99.90;;;;;;5020434;28;20046;-83
2021/01/24 10:23:27;;;;;;;0.45;0.45;;;2.90;99.90;;;;;;5021542;28;20548;-82
2021/01/24 10:25:55;;;;;;;0.30;0.30;;;3.00;99.90;;;;;;5021295;28;20086;-82
2021/01/24 10:28:23;;;;;;;0.50;0.50;;;3.00;99.90;;;;;;5026537;28;20514;-83
2021/01/24 10:30:51;;;;;;;0.73;0.70;;;3.00;99.90;;;;;;5032715;28;20050;-82
2021/01/24 10:33:25;;;;;;;0.30;0.30;;;3.00;99.90;;;;;;5035317;28;20065;-81
2021/01/24 10:35:51;;;;;;;0.40;0.40;;;3.10;99.90;;;;;;5020651;28;20121;-82
2021/01/24 10:38:20;;;;;;;0.65;0.65;;;3.20;99.90;;;;;;5018580;28;20057;-82
2021/01/24 10:40:48;;;;;;;0.55;0.55;;;3.50;99.90;;;;;;5017056;28;20136;-82
2021/01/24 10:43:14;;;;;;;1.98;0.40;;;3.60;99.90;;;;;;5018972;28;20490;-82
2021/01/24 10:45:40;;;;;;;0.40;0.40;;;3.60;99.90;;;;;;5017809;28;20469;-81
2021/01/24 10:48:07;;;;;;;0.50;0.50;;;3.80;99.90;;;;;;5019508;28;20053;-82
2021/01/24 10:50:36;;;;;;;0.50;0.50;;;3.90;99.90;;;;;;5020262;28;20396;-82
2021/01/24 10:53:04;;;;;;;0.43;0.20;;;4.00;99.90;;;;;;5025771;28;20069;-84
2021/01/24 10:55:32;;;;;;;0.30;0.30;;;3.90;99.90;;;;;;5025698;28;20046;-83
2021/01/24 10:58:00;;;;;;;0.20;0.20;;;3.80;99.90;;;;;;5024882;28;20081;-83
2021/01/24 11:00:26;;;;;;;0.20;0.20;;;3.70;99.90;;;;;;5023483;28;20053;-83
2021/01/24 11:02:55;;;;;;;0.80;0.30;;;3.60;99.90;;;;;;5023456;28;20481;-83
2021/01/24 11:05:22;;;;;;;0.13;0.13;;;3.50;99.90;;;;;;5021834;28;20042;-83
2021/01/24 11:07:48;;;;;;;1.23;0.95;;;3.30;99.90;;;;;;5023548;28;20473;-82
2021/01/24 11:10:17;;;;;;;0.40;0.40;;;3.30;99.90;;;;;;5024380;28;20089;-83
2021/01/24 11:12:44;;;;;;;0.20;0.20;;;3.50;99.90;;;;;;5019644;28;20470;-83
2021/01/24 11:15:11;;;;;;;2.05;1.95;;;3.50;99.90;;;;;;5020095;28;20061;-83
2021/01/24 11:17:37;;;;;;;0.40;0.40;;;3.50;99.90;;;;;;5019516;28;20050;-83
2021/01/24 11:20:09;;;;;;;0.30;0.30;;;3.50;99.90;;;;;;5020909;28;20137;-83
2021/01/24 11:22:38;;;;;;;0.20;0.20;;;3.70;99.90;;;;;;5019202;28;20108;-83
2021/01/24 11:25:06;;;;;;;0.38;0.38;;;3.80;99.90;;;;;;5021376;28;20073;-83
2021/01/24 11:27:33;;;;;;;0.25;0.25;;;4.00;99.90;;;;;;5021608;28;20045;-83
2021/01/24 11:30:01;;;;;;;0.40;0.40;;;4.20;99.90;;;;;;5021816;28;20100;-83
2021/01/24 11:32:27;;;;;;;0.30;0.20;;;4.30;99.90;;;;;;5018941;28;20077;-83
2021/01/24 11:35:08;;;;;;;0.20;0.20;;;4.30;99.90;;;;;;5019514;28;20109;-83
2021/01/24 11:37:35;;;;;;;0.20;0.20;;;4.40;99.90;;;;;;5019620;28;20045;-83
2021/01/24 11:40:03;;;;;;;1.08;1.08;;;4.40;99.90;;;;;;5021816;28;20073;-83
2021/01/24 11:42:29;;;;;;;0.10;0.10;;;4.40;99.90;;;;;;5021532;28;20098;-84
2021/01/24 11:44:55;;;;;;;0.30;0.30;;;4.40;99.90;;;;;;5021197;28;20046;-83
2021/01/24 11:47:21;;;;;;;0.30;0.30;;;4.40;99.90;;;;;;5021946;28;20057;-84
2021/01/24 11:49:48;;;;;;;2.72;0.90;;;4.50;99.90;;;;;;5021197;28;20081;-83
2021/01/24 11:52:14;;;;;;;0.20;0.20;;;4.40;99.90;;;;;;5025198;28;20093;-83
2021/01/24 11:54:40;;;;;;;0.40;0.40;;;4.40;99.90;;;;;;5023674;28;20085;-83
2021/01/24 11:57:06;;;;;;;0.40;0.40;;;4.50;99.90;;;;;;5022775;28;20054;-83
2021/01/24 11:59:32;;;;;;;0.20;0.20;;;4.60;99.90;;;;;;5021213;28;20053;-83
2021/01/24 12:02:00;;;;;;;0.32;0.32;;;4.70;99.90;;;;;;5019454;28;20077;-83
2021/01/24 12:04:26;;;;;;;0.40;0.40;;;4.70;99.90;;;;;;5019590;28;20045;-83
2021/01/24 12:06:52;;;;;;;0.30;0.30;;;4.60;99.90;;;;;;5020042;28;20073;-83
2021/01/24 12:09:19;;;;;;;0.30;0.30;;;4.50;99.90;;;;;;5018724;28;20042;-83
2021/01/24 12:11:45;;;;;;;0.40;0.40;;;4.40;99.90;;;;;;5018599;28;20046;-83
2021/01/24 12:14:12;;;;;;;0.40;0.40;;;4.30;99.90;;;;;;5017775;28;20085;-84
2021/01/24 12:16:38;;;;;;;0.22;0.22;;;4.20;99.90;;;;;;5018894;28;20113;-83
2021/01/24 12:19:05;;;;;;;0.30;0.30;;;4.00;99.90;;;;;;5019070;28;20057;-83
2021/01/24 12:21:31;;;;;;;0.40;0.40;;;3.90;99.90;;;;;;5017600;28;20045;-83
2021/01/24 12:23:57;;;;;;;0.20;0.20;;;3.90;99.90;;;;;;5017244;28;20613;-82
2021/01/24 12:26:23;;;;;;;0.30;0.30;;;3.70;99.90;;;;;;5018732;28;20080;-83
2021/01/24 12:28:50;;;;;;;0.40;0.40;;;3.60;99.90;;;;;;5020721;28;20050;-83
2021/01/24 12:31:16;;;;;;;0.30;0.30;;;3.60;99.90;;;;;;5020827;28;20076;-83
2021/01/24 12:33:42;;;;;;;0.20;0.20;;;3.50;99.90;;;;;;5017190;28;20100;-82
2021/01/24 12:36:09;;;;;;;0.30;0.30;;;3.40;99.90;;;;;;5014766;28;20056;-82
2021/01/24 12:38:36;;;;;;;0.22;0.22;;;3.40;99.90;;;;;;5015170;28;20052;-82
2021/01/24 12:41:02;;;;;;;0.30;0.30;;;3.40;99.90;;;;;;5021422;28;20531;-83
2021/01/24 12:43:28;;;;;;;0.20;0.20;;;3.40;99.90;;;;;;5025154;28;20085;-83
2021/01/24 12:45:54;;;;;;;0.30;0.30;;;3.30;99.90;;;;;;5022568;28;20049;-84
2021/01/24 12:48:21;;;;;;;0.20;0.20;;;3.20;99.90;;;;;;5021605;28;20045;-83
2021/01/24 12:50:47;;;;;;;0.50;0.50;;;3.10;99.90;;;;;;5022482;28;20057;-82
2021/01/24 12:53:14;;;;;;;0.50;0.50;;;3.10;99.90;;;;;;5023391;28;20049;-83